Loisir ou Compétition : Rejoignez un Club de la Fédération

Résultats

LA TRANS'CHAMPSAURINE

COL BAYARD CHAMPSAUR

FP Dames

Jury de Compétition

Délégué Technique :
ROBERT LUC (AP)
D.T. Adjoint :
FROSSARD CHRISTIAN (SA)
Dir. Epreuve :
PASSERON STEPHANE (AP)

Caractéristiques de la Piste

Piste :
Site de Replis
Distance :
21 km
Point Haut :
 
Point Bas :
 
Montée Tot. :
 
Montée Max. :
 
Homologation :
 

Pénalité Appliquée :
14.5900
Coefficient :
1400

Catégorie :
U18->M12
Style :
L
Clt Dos Clt/Cat Code An Nom Prénom Com Club Temps Ecart Points
Classés
1 1203 1/SEN FFS2620471 1992 LACROIX ROXANE MJ BOIS D'AMONT 1h06:20.3 00:00.0 14.59
2 1207 2/SEN FFS2617672 1994 CHOPARD LALLIER CELINE MJ VAL MORTEAU 1h07:23.7 01:03.4 36.89
3 1202 3/SEN FFS2266678 1991 COLIN MARION SA CS LA FECLAZ 1h08:05.1 01:44.8 51.45
4 1201 4/SEN FFS2265148 1989 SIMILLE MANON SA SC BOZEL 1h08:13.8 01:53.5 54.51
5 1204 5/SEN FFS2622862 1993 KROMER MARIE MB PRAZ LYS-SOM 1h09:45.4 03:25.1 86.73
6 1227 1/U18 FFS2620847 1998 CHAMIOT MAITRAL LAURA SA CS SAISIES 1h10:11.1 03:50.8 95.77
7 1205 6/SEN FFS2625590 1994 VULLIET CONSTANCE MB SC GD BORNAN 1h11:52.0 05:31.7 131.26
8 1225 7/SEN FFS2618741 1993 BENOIT MANON MV SC RANSPACH 1h11:53.5 05:33.2 131.79
9 1210 1/U20 FFS2615397 1996 VANDERWEYEN LAURA AP GAP-BAYARD 1h11:56.2 05:35.9 132.74
10 1216 8/SEN FFS2613018 1994 DEMANGEAT RACHEL SA CS LA FECLAZ 1h12:17.3 05:57.0 140.16
11 1232 2/U18 FFS2643589 1998 CHALIVET AMELIE SA MONOLITHE SF 1h12:30.8 06:10.5 144.91
12 1208 9/SEN FFS2356488 1994 ACHARD MARGAUX SA CS LA FECLAZ 1h12:51.7 06:31.4 152.26
13 1222 2/U20 FFS2638033 1995 BLONDEAU MAELISS MJ SC MONT NOIR 1h13:45.4 07:25.1 171.15
14 1214 3/U20 FFS2637859 1996 BENTZ CORALIE MB VILLARD/BOEG 1h13:46.2 07:25.9 171.43
15 1213 4/U20 FFS2643697 1996 ZAMBAUX LEA MJ OLYMP MT DOR 1h13:46.7 07:26.4 171.60
16 1217 3/U18 FFS2619948 1997 BRON JULIE MB LES GETS S.C 1h13:51.1 07:30.8 173.15
17 1212 5/U20 FFS2626362 1995 SERCA CECILE AP ES VALLOUISE 1h13:55.9 07:35.6 174.84
18 1223 6/U20 FFS2647377 1996 LAURENCE CLEMENTINE MJ CSR PONTARLI 1h14:37.5 08:17.2 189.47
19 1209 4/U18 FFS2639197 1997 CHABRE MANON AP GAP-BAYARD 1h14:46.5 08:26.2 192.64
20 1219 5/U18 FFS2626100 1997 LOCATELLI EVA DA SA MEAUDRAIS 1h15:34.3 09:14.0 209.45
21 1221 6/U18 FFS2638878 1997 FLOCHON LAURIE SA CS LA FECLAZ 1h15:34.9 09:14.6 209.66
22 1211 7/U18 FFS2638907 1997 GROS CECILE AP ES VALLOUISE 1h15:39.9 09:19.6 211.42
23 1231 8/U18 FFS2649037 1998 PIERREL MARGAUX MB SC GD BORNAN 1h15:50.9 09:30.6 215.29
24 1218 7/U20 FFS2654516 1996 TOURNAY FANNY SA CS LA FECLAZ 1h16:27.8 10:07.5 228.27
25 1229 9/U18 FFS2628759 1997 LYAUDET MARGOT LY US CORMARANC 1h17:24.5 11:04.2 248.21
26 1215 8/U20 FFS2631636 1996 BARTHELEMY KATIA AP ES VALLOUISE 1h17:28.4 11:08.1 249.58
27 1224 9/U20 FFS2632062 1996 GOALABRE LOUISE AP SC QUEYRAS 1h18:19.5 11:59.2 267.56
28 1240 10/U18 FFS2644183 1998 PELLEGRIN LISA AP SC QUEYRAS 1h18:36.0 12:15.7 273.36
29 1226 11/U18 FFS2643743 1997 BASTARD ROSSET ISALINE MB SC GD BORNAN 1h19:20.0 12:59.7 288.84
30 1206 10/U20 FFS2626799 1995 YSEBAERT ANAIS AP AS EDELWEISS 1h19:31.4 13:11.1 292.85
31 1220 12/U18 FFS2649305 1997 SANDOZ JUSTINE MJ AS VERRIERES 1h19:35.0 13:14.7 294.11
32 1263 1/M2 TIC610440109 1979 MESSENGER Karen Rocky Mounta 1h19:36.2 13:15.9 294.53
33 1236 11/U20 FFS2637325 1996 BE LOUISE SA CS LA FECLAZ 1h20:22.0 14:01.7 310.64
34 1238 13/U18 FFS2649036 1998 PESSEY LOTUS MB SC GD BORNAN 1h21:09.1 14:48.8 327.21
35 1228 12/U20 FFS2631420 1996 HOURS BERANGERE SA CS LA FECLAZ 1h24:07.9 17:47.6 390.10
36 1230 14/U18 FFS2652903 1997 SALVI LAURA MJ A.S MOUTHE 1h24:27.5 18:07.2 396.99
37 1242 15/U18 FFS2649507 1998 LAMBERT JENNIFER SA CS LA FECLAZ 1h25:19.0 18:58.7 415.11
38 1244 16/U18 FFS2646392 1998 ROUX LYDIE AP SC QUEYRAS 1h25:19.4 18:59.1 415.25
39 1239 13/U20 FFS2638939 1996 GOCYK ANGELE LY CS VALROMEY 1h26:30.9 20:10.6 440.40
40 1250 1/M3 FFS2662677 1974 QUERE FROITZHEIM EGLANTIN AP AS EDELWEISS 1h27:17.3 20:57.0 456.72
41 1233 17/U18 FFS2621752 1997 ABOULY KAYLA SA SC MENUIRES 1h27:57.7 21:37.4 470.93
42 1249 18/U18 FFS2643842 1998 LAURENS MARION AP SC QUEYRAS 1h28:28.1 22:07.8 481.62
43 1247 19/U18 FFS2650463 1998 TRIBOULET MARGOT AP ES VALLOUISE 1h30:15.3 23:55.0 519.33
44 1267 1/M1 TIC610440057 1982 LEHOUX ADELE 1h31:31.5 25:11.2 546.13
45 1245 20/U18 FFS2643666 1998 ECHALARD CAMILLE AP GAP-BAYARD 1h40:45.9 34:25.6 741.13
46 1256 1/M4 TIC610440098 1967 SOULARD Carole 1h43:00.4 36:40.1 788.44
47 1259 2/M4 TIC610440097 1965 VAN BAAREN Anne-José 1h43:49.8 37:29.5 805.81
48 1257 1/M6 TIC610440096 1959 MORE Dominique 1h44:08.1 37:47.8 812.25
49 1253 2/M2 TIC610440077 1979 LESOILE Elise 1h47:40.3 41:20.0 886.89
50 1260 21/U18 FFS2641440 1997 FRANCOIS MARGUERITE AP CO DEVOLUY 1h55:43.6 49:23.3 1056.79
51 1255 2/M6 FFS2657206 1958 GIRAUD ANNE AP SC QUEYRAS 1h58:21.1 52:00.8 1112.19
52 1266 2/M3 TIC610440058 1971 MARREAU VERONIQUE 1h58:54.0 52:33.7 1123.79
53 1251 14/U20 FFS2625648 1996 HALLUIN ELEANOR AP CO DEVOLUY 2h06:23.1 1h00:02.8 1281.79
54 1265 3/M3 TIC610440062 1972 ROUSTANG FREDERIQUE 2h12:43.9 1h06:23.6 1415.69
55 1254 3/M6 TIC610440095 1955 MOURIER FRANCELINE 2h18:45.2 1h12:24.9 1542.79
56 1262 3/M4 TIC610440106 1967 FRISON Nathalie 2h27:45.8 1h21:25.5 1732.89
57 1264 4/M6 TIC610440063 1958 HAUTEFEUILLE ANNE 3h23:16.1 2h16:55.8 2904.29
Abandons
1248 FFS2642465 1995 MARSEILLE CLARA AP GAP-BAYARD
Non partants
1234 FFS2644377 1998 CHENAL CLEMENCE SA SC PEISEY VA
1252 TIC610440088 1985 BONETTO Frédérique
1258 TIC610440092 1960 MARGAILLAN Liliane